createdAt,value
2023-01-08T00:03:52.016Z,55.52
2023-01-08T00:08:54.137Z,55.52
2023-01-08T00:13:56.282Z,55.45
2023-01-08T00:18:58.647Z,55.84
2023-01-08T00:24:00.904Z,55.79
2023-01-08T00:29:03.153Z,55.75
2023-01-08T00:34:05.296Z,55.66
2023-01-08T00:39:07.491Z,55.74
2023-01-08T00:44:09.950Z,55.49
2023-01-08T00:49:12.181Z,55.62
2023-01-08T00:54:14.379Z,55.56
2023-01-08T00:59:16.514Z,55.35
2023-01-08T01:04:18.784Z,55.13
2023-01-08T01:09:20.996Z,55.23
2023-01-08T01:14:23.515Z,55.42
2023-01-08T01:19:25.701Z,55.47
2023-01-08T01:24:28.041Z,55.42
2023-01-08T01:29:30.173Z,55.14
2023-01-08T01:34:33.256Z,55.15
2023-01-08T01:39:35.460Z,55.11
2023-01-08T01:44:47.084Z,55.31
2023-01-08T01:50:13.858Z,55.38
2023-01-08T01:55:16.873Z,55.11
2023-01-08T02:00:19.625Z,55.01
2023-01-08T02:05:25.146Z,55.01
2023-01-08T02:10:54.007Z,55.22
2023-01-08T02:16:01.641Z,55.22
2023-01-08T02:21:10.153Z,55.34
2023-01-08T02:26:32.969Z,55.29
2023-01-08T02:31:39.417Z,55.21
2023-01-08T02:36:52.804Z,55.09
2023-01-08T02:42:26.873Z,55.13
2023-01-08T02:47:38.296Z,55.04
2023-01-08T02:52:54.043Z,54.87
2023-01-08T02:57:57.600Z,54.97
2023-01-08T03:03:21.722Z,54.99
2023-01-08T03:08:25.242Z,54.86
2023-01-08T03:13:36.354Z,54.85
2023-01-08T03:18:46.332Z,54.63
2023-01-08T03:23:49.393Z,54.71
2023-01-08T03:28:54.957Z,54.65
2023-01-08T03:33:58.500Z,54.37
2023-01-08T03:39:08.099Z,54.76
2023-01-08T03:44:10.345Z,54.84
2023-01-08T03:49:13.334Z,54.72
2023-01-08T03:54:18.936Z,54.89
2023-01-08T03:59:21.046Z,54.91
2023-01-08T04:04:23.271Z,54.81
2023-01-08T04:09:25.504Z,54.92
2023-01-08T04:14:27.799Z,55.37
2023-01-08T04:19:30.655Z,55.46
2023-01-08T04:24:32.996Z,55.45
2023-01-08T04:29:35.259Z,55.65
2023-01-08T04:34:37.463Z,55.96
2023-01-08T04:39:39.557Z,56.22
2023-01-08T04:44:41.813Z,56.45
2023-01-08T04:49:44.299Z,56.39
2023-01-08T04:54:46.494Z,56.50
2023-01-08T04:59:48.700Z,56.61
2023-01-08T05:04:50.827Z,56.64
2023-01-08T05:09:53.149Z,56.52
2023-01-08T05:14:55.220Z,56.50
2023-01-08T05:19:57.343Z,56.34
2023-01-08T05:24:59.491Z,56.58
2023-01-08T05:30:01.634Z,56.85
2023-01-08T05:35:04.084Z,56.74
2023-01-08T05:40:06.701Z,56.59
2023-01-08T05:45:09.147Z,56.30
2023-01-08T05:50:11.278Z,56.42
2023-01-08T05:55:13.487Z,56.58
2023-01-08T06:00:15.924Z,56.72
2023-01-08T06:05:18.055Z,56.70
2023-01-08T06:10:20.333Z,56.63
2023-01-08T06:15:22.455Z,56.51
2023-01-08T06:20:24.580Z,56.36
2023-01-08T06:25:26.754Z,56.25
2023-01-08T06:30:28.878Z,56.04
2023-01-08T06:35:30.999Z,55.95
2023-01-08T06:40:33.203Z,56.20
2023-01-08T06:45:35.386Z,56.18
2023-01-08T06:50:37.662Z,56.21
2023-01-08T06:55:39.823Z,56.03
2023-01-08T07:00:43.849Z,56.10
2023-01-08T07:05:46.465Z,55.98
2023-01-08T07:10:48.723Z,56.19
2023-01-08T07:15:50.982Z,56.32
2023-01-08T07:20:53.140Z,56.35
2023-01-08T07:25:55.335Z,56.00
2023-01-08T07:30:57.848Z,55.88
2023-01-08T07:36:00.040Z,56.02
2023-01-08T07:41:02.181Z,56.40
2023-01-08T07:46:04.963Z,56.57
2023-01-08T07:51:09.122Z,56.65
2023-01-08T07:56:11.603Z,56.65
2023-01-08T08:01:15.096Z,56.70
2023-01-08T08:06:17.284Z,56.84
2023-01-08T08:11:19.663Z,56.64
2023-01-08T08:16:21.941Z,56.71
2023-01-08T08:21:26.236Z,56.66
2023-01-08T08:26:28.460Z,56.82
2023-01-08T08:31:30.683Z,57.12
2023-01-08T08:36:32.885Z,57.26
2023-01-08T08:41:35.951Z,57.10
2023-01-08T08:46:38.135Z,57.19
2023-01-08T08:51:40.304Z,57.08
2023-01-08T08:56:42.517Z,57.13
2023-01-08T09:01:44.771Z,57.54
2023-01-08T09:06:47.022Z,57.59
2023-01-08T09:11:49.220Z,57.42
2023-01-08T09:16:51.404Z,57.47
2023-01-08T09:21:53.491Z,57.20
2023-01-08T09:26:55.641Z,57.44
2023-01-08T09:32:00.497Z,57.59
2023-01-08T09:37:03.243Z,57.74
2023-01-08T09:42:06.506Z,57.67
2023-01-08T09:47:23.508Z,57.48
2023-01-08T09:52:25.937Z,57.32
2023-01-08T09:57:29.740Z,57.24
2023-01-08T10:02:35.066Z,57.42
2023-01-08T10:07:37.315Z,57.16
2023-01-08T10:12:40.257Z,57.31
2023-01-08T10:18:06.424Z,57.46
2023-01-08T10:23:11.089Z,57.66
2023-01-08T10:28:35.882Z,57.63
2023-01-08T10:33:45.552Z,57.59
2023-01-08T10:39:00.968Z,57.83
2023-01-08T10:44:14.902Z,57.83
2023-01-08T10:49:19.929Z,57.87
2023-01-08T10:54:40.980Z,57.89
2023-01-08T10:59:43.172Z,58.12
2023-01-08T11:04:52.391Z,58.24
2023-01-08T11:09:55.364Z,58.63
2023-01-08T11:14:58.000Z,58.71
2023-01-08T11:20:24.744Z,58.59
2023-01-08T11:25:30.320Z,58.43
2023-01-08T11:30:36.588Z,58.40
2023-01-08T11:35:38.645Z,58.75
2023-01-08T11:40:50.572Z,59.04
2023-01-08T11:46:04.957Z,59.37
2023-01-08T11:51:44.584Z,59.46
2023-01-08T11:56:49.565Z,59.53
2023-01-08T12:02:01.273Z,59.48
2023-01-08T12:07:20.178Z,59.43
2023-01-08T12:12:28.305Z,59.42
2023-01-08T12:18:01.186Z,59.37
2023-01-08T12:23:30.620Z,59.25
2023-01-08T12:28:38.811Z,59.13
2023-01-08T12:33:50.205Z,59.03
2023-01-08T12:39:09.251Z,59.36
2023-01-08T12:44:12.566Z,59.49
2023-01-08T12:49:22.661Z,59.41
2023-01-08T12:54:50.427Z,59.19
2023-01-08T13:00:10.190Z,58.98
2023-01-08T13:05:13.557Z,58.98
2023-01-08T13:10:54.499Z,58.98
2023-01-08T13:16:14.843Z,58.97
2023-01-08T13:21:17.256Z,58.96
2023-01-08T13:26:30.940Z,58.79
2023-01-08T13:31:41.290Z,58.84
2023-01-08T13:36:43.412Z,58.88
2023-01-08T13:42:13.338Z,59.11
2023-01-08T13:47:26.280Z,58.85
2023-01-08T13:52:37.682Z,58.49
2023-01-08T13:57:48.589Z,58.57
2023-01-08T14:02:51.416Z,58.60
2023-01-08T14:07:54.160Z,58.85
2023-01-08T14:13:07.691Z,58.59
2023-01-08T14:18:13.728Z,58.59
2023-01-08T14:23:26.538Z,58.40
2023-01-08T14:28:28.647Z,58.45
2023-01-08T14:33:38.742Z,58.75
2023-01-08T14:38:40.956Z,58.80
2023-01-08T14:43:46.841Z,58.57
2023-01-08T14:48:50.700Z,59.00
2023-01-08T14:54:06.537Z,59.07
2023-01-08T14:59:11.436Z,59.43
2023-01-08T15:04:19.003Z,59.72
2023-01-08T15:09:24.353Z,59.50
2023-01-08T15:14:29.428Z,59.25
2023-01-08T15:19:39.614Z,59.05
2023-01-08T15:24:41.926Z,59.09
2023-01-08T15:29:52.588Z,58.82
2023-01-08T15:34:55.136Z,58.81
2023-01-08T15:39:57.356Z,58.70
2023-01-08T15:44:59.377Z,58.63
2023-01-08T15:50:01.460Z,58.86
2023-01-08T15:55:03.840Z,59.13
2023-01-08T16:00:06.692Z,59.38
2023-01-08T16:05:09.260Z,59.31
2023-01-08T16:10:12.157Z,59.22
2023-01-08T16:15:15.803Z,59.31
2023-01-08T16:20:18.455Z,59.48
2023-01-08T16:25:20.636Z,59.39
2023-01-08T16:30:22.720Z,59.29
2023-01-08T16:35:24.956Z,59.24
2023-01-08T16:40:27.054Z,59.26
2023-01-08T16:45:29.189Z,59.20
2023-01-08T16:50:32.731Z,59.14
2023-01-08T16:55:38.459Z,59.12
2023-01-08T17:00:40.951Z,59.19
2023-01-08T17:05:43.025Z,59.44
2023-01-08T17:10:45.274Z,59.45
2023-01-08T17:15:47.341Z,59.52
2023-01-08T17:20:55.739Z,59.33
2023-01-08T17:26:00.816Z,59.19
2023-01-08T17:31:06.357Z,59.25
2023-01-08T17:36:23.386Z,59.27
2023-01-08T17:41:44.316Z,59.50
2023-01-08T17:46:46.504Z,59.45
2023-01-08T17:51:48.779Z,59.30
2023-01-08T17:56:51.032Z,59.24
2023-01-08T18:01:54.003Z,59.27
2023-01-08T18:06:56.202Z,59.29
2023-01-08T18:11:58.550Z,59.32
2023-01-08T18:17:00.777Z,59.10
2023-01-08T18:22:02.976Z,59.21
2023-01-08T18:27:05.157Z,59.12
2023-01-08T18:32:07.459Z,59.38
2023-01-08T18:37:09.608Z,59.26
2023-01-08T18:42:26.747Z,59.13
2023-01-08T18:47:29.122Z,59.13
2023-01-08T18:52:31.367Z,58.98
2023-01-08T18:57:33.510Z,59.00
2023-01-08T19:02:35.906Z,58.87
2023-01-08T19:07:38.519Z,58.74
2023-01-08T19:12:40.697Z,58.79
2023-01-08T19:17:42.925Z,58.92
2023-01-08T19:22:45.086Z,58.68
2023-01-08T19:27:47.472Z,58.50
2023-01-08T19:32:49.554Z,58.56
2023-01-08T19:37:51.788Z,58.46
2023-01-08T19:43:12.311Z,58.61
2023-01-08T19:48:14.465Z,58.44
2023-01-08T19:53:16.686Z,58.39
2023-01-08T19:58:19.630Z,58.46
2023-01-08T20:03:24.372Z,58.31
2023-01-08T20:08:26.535Z,58.34
2023-01-08T20:13:28.576Z,58.15
2023-01-08T20:18:31.039Z,58.24
2023-01-08T20:23:33.597Z,58.19
2023-01-08T20:28:37.674Z,57.99
2023-01-08T20:33:40.505Z,57.95
2023-01-08T20:38:44.000Z,58.21
2023-01-08T20:43:46.190Z,58.30
2023-01-08T20:48:48.587Z,58.38
2023-01-08T20:53:50.869Z,58.29
2023-01-08T20:58:53.167Z,58.13
2023-01-08T21:03:58.445Z,58.08
2023-01-08T21:09:06.775Z,58.00
2023-01-08T21:14:10.551Z,57.99
2023-01-08T21:19:15.192Z,57.81
2023-01-08T21:24:17.433Z,57.85
2023-01-08T21:29:21.188Z,57.98
2023-01-08T21:34:23.345Z,57.76
2023-01-08T21:39:26.199Z,57.98
2023-01-08T21:44:47.105Z,58.10
2023-01-08T21:49:49.861Z,58.11
2023-01-08T21:54:52.292Z,58.25
2023-01-08T21:59:55.593Z,58.27
2023-01-08T22:04:58.021Z,58.35
2023-01-08T22:10:00.861Z,58.54
2023-01-08T22:15:03.098Z,58.72
2023-01-08T22:20:06.978Z,59.20
2023-01-08T22:25:09.567Z,59.83
2023-01-08T22:30:11.972Z,60.39
2023-01-08T22:35:14.372Z,60.82
2023-01-08T22:40:16.891Z,60.99
2023-01-08T22:45:19.142Z,60.96
2023-01-08T22:50:21.295Z,61.32
2023-01-08T22:55:23.655Z,61.66
2023-01-08T23:00:25.858Z,61.66
2023-01-08T23:05:27.980Z,61.79
2023-01-08T23:10:30.598Z,62.01
2023-01-08T23:15:32.717Z,62.00
2023-01-08T23:20:34.878Z,62.22
2023-01-08T23:25:37.029Z,62.43
2023-01-08T23:30:41.117Z,62.97
2023-01-08T23:35:43.253Z,63.53
2023-01-08T23:40:46.331Z,63.87
2023-01-08T23:45:48.537Z,64.20
2023-01-08T23:50:50.728Z,64.03
2023-01-08T23:55:53.175Z,63.95
